map of SGU home
SGU - Airport
Location
City:  St. George, Utah, United States
Name:St. George Regional
ICAO:KSGU
IATA:SGU
FAA LID:SGU

Details
Type:Airport (Part 139 Class I)
Use:Public/Civil
Latitude:3702'11"N (37.036389)
Longitude:11330'37"W (-113.510305)
Datum:WGS 1984
Elevation:2883 ft (879 m)
Variation:11.26E (WMM2015 magnetic declination)
-0.10 annual change
Runways:1
Longest:9300 × 150 ft (2835 × 45.5 m), paved

Time
Time Zone:UTC-7 (DST-6)
Local Time:

Weather
METAR:KSGU 141356Z AUTO 00000KT 10SM CLR 02/M10 A3050 RMK AO2 SLP336 T00171100 FZRANO
TAF:KSGU 141128Z 1412/1512 VRB04KT P6SM SCT200

Related Locations
Nearby:
Farthest:RRG: 11225 mi / 18066 km
Plaine Corail [Sir Gatan Duval Airport (Plaine Corail Airport)], Rodrigues Island, MU

Find:

   beyond  
but within

Other Information
Maps:
NOTAMs:
Links:
Sources:

  
  • flag of United States
  • flag of Utah
  

Sectional Chart

Flight Planning
at skyvector.com

Satellite Image

Google Maps Satellite view

 

Copyright © 2004-2018 Karl L. Swartz. All rights reserved.
The Great Circle Mapper name and logo are trademarks of the Great Circle Mapper.
All other trademarks mentioned herein belong to their respective owners.
Please see credits for attibutions and further copyright information.

  Follow gcmap on Facebook Follow gcmap on Twitter Follow gcmap on Google+ GCmap on LinkedIn

hCard Microformat

Geo Microformat